Time;durP1;ratioP1;P1;durP2;ratioP2;P2;SDS_P1;SDS_P2;PMS_P1;PMS_P2;Temp;Humidity;BMP_temperature;BMP_pressure;BME280_temperature;BME280_humidity;BME280_pressure;Samples;Min_cycle;Max_cycle;Signal;HPM_P1;HPM_P2
2021/03/02 00:01:21;;;;;;;72.03;35.28;;;;;;;3.14;86.35;102489.11;1734872;81;27353;-78
2021/03/02 00:03:50;;;;;;;68.90;32.15;;;;;;;3.16;86.28;102485.53;1756922;81;25922;-79
2021/03/02 00:06:17;;;;;;;70.83;34.58;;;;;;;3.14;86.22;102489.60;1728174;80;25965;-78
2021/03/02 00:08:45;;;;;;;68.57;31.33;;;;;;;3.10;86.25;102480.97;1754672;80;25853;-79
2021/03/02 00:11:13;;;;;;;72.72;33.53;;;;;;;3.11;86.33;102484.48;1762625;80;25638;-79
2021/03/02 00:13:41;;;;;;;60.73;29.87;;;;;;;3.09;86.36;102484.58;1758117;81;27601;-79
2021/03/02 00:16:10;;;;;;;70.78;31.80;;;;;;;3.08;86.60;102485.98;1720609;81;25914;-78
2021/03/02 00:18:43;;;;;;;68.10;30.95;;;;;;;3.06;86.57;102486.08;1737365;81;25739;-77
2021/03/02 00:21:18;;;;;;;72.37;33.78;;;;;;;3.07;86.60;102482.97;1719990;81;26511;-79
2021/03/02 00:23:53;;;;;;;64.67;30.65;;;;;;;3.06;86.56;102473.30;1673973;84;25785;-78
2021/03/02 00:26:23;;;;;;;62.73;26.50;;;;;;;3.07;86.67;102478.99;1712245;82;27561;-78
2021/03/02 00:28:53;;;;;;;73.78;35.25;;;;;;;3.06;86.71;102479.45;1709867;81;26441;-78
2021/03/02 00:31:20;;;;;;;64.15;30.65;;;;;;;3.04;86.78;102474.73;1701638;82;25800;-78
2021/03/02 00:33:48;;;;;;;68.37;32.20;;;;;;;3.05;86.71;102471.16;1647424;83;25770;-77
2021/03/02 00:36:15;;;;;;;58.63;25.17;;;;;;;3.05;86.78;102468.97;1670862;84;26202;-79
2021/03/02 00:38:43;;;;;;;73.45;34.03;;;;;;;3.05;86.94;102467.19;1695632;82;27504;-79
2021/03/02 00:41:10;;;;;;;75.12;32.50;;;;;;;3.04;86.88;102465.47;1716382;82;25685;-78
2021/03/02 00:43:37;;;;;;;74.80;33.28;;;;;;;3.04;86.95;102464.61;1677167;83;25725;-78
2021/03/02 00:46:04;;;;;;;71.60;32.40;;;;;;;3.04;86.93;102470.77;1654054;83;26421;-78
2021/03/02 00:48:32;;;;;;;73.85;34.27;;;;;;;3.05;86.96;102467.19;1665557;82;25435;-79
2021/03/02 00:51:00;;;;;;;72.08;33.98;;;;;;;3.05;87.22;102461.89;1695003;82;28569;-78
2021/03/02 00:53:28;;;;;;;74.17;34.70;;;;;;;3.04;87.02;102453.55;1705698;82;26113;-78
2021/03/02 00:55:56;;;;;;;65.87;28.05;;;;;;;3.06;87.08;102446.83;1713808;82;25896;-78
2021/03/02 00:58:23;;;;;;;67.82;32.50;;;;;;;3.06;87.23;102441.07;1653882;84;26240;-79
2021/03/02 01:00:51;;;;;;;79.65;34.33;;;;;;;3.07;87.30;102441.93;1686639;82;25748;-77
2021/03/02 01:03:19;;;;;;;74.65;32.55;;;;;;;3.05;87.19;102439.38;1668292;82;28437;-78
2021/03/02 01:05:46;;;;;;;79.97;36.85;;;;;;;3.06;87.31;102423.00;1666607;83;26431;-78
2021/03/02 01:08:15;;;;;;;80.25;34.43;;;;;;;3.06;87.29;102407.13;1715895;82;26541;-78
2021/03/02 01:10:43;;;;;;;77.65;35.20;;;;;;;3.05;87.23;102408.94;1709397;82;25758;-78
2021/03/02 01:13:11;;;;;;;86.60;39.73;;;;;;;3.05;87.42;102402.33;1680733;82;26186;-77
2021/03/02 01:15:38;;;;;;;76.17;37.83;;;;;;;3.04;87.36;102407.22;1710271;82;27711;-77
2021/03/02 01:18:06;;;;;;;85.20;38.92;;;;;;;3.06;87.44;102417.24;1688057;82;25936;-78
2021/03/02 01:20:34;;;;;;;82.22;36.98;;;;;;;3.06;87.45;102417.71;1731403;81;25369;-77
2021/03/02 01:23:01;;;;;;;87.27;36.13;;;;;;;3.08;87.40;102415.81;1652218;82;25955;-78
2021/03/02 01:25:29;;;;;;;84.85;37.93;;;;;;;3.11;87.47;102410.34;1658804;84;25890;-77
2021/03/02 01:27:56;;;;;;;78.80;37.95;;;;;;;3.09;87.48;102411.77;1691565;82;27324;-79
2021/03/02 01:30:25;;;;;;;92.55;42.38;;;;;;;3.09;87.55;102408.27;1707462;83;25894;-79
2021/03/02 01:32:53;;;;;;;91.50;40.28;;;;;;;3.06;87.54;102407.98;1658029;83;25756;-79
2021/03/02 01:35:21;;;;;;;98.65;40.92;;;;;;;3.09;87.69;102409.13;1676881;82;25805;-79
2021/03/02 01:37:48;;;;;;;81.63;37.63;;;;;;;3.08;87.65;102393.31;1694326;82;25846;-78
2021/03/02 01:40:18;;;;;;;87.12;37.53;;;;;;;3.08;87.64;102394.64;1688519;82;28674;-79
2021/03/02 01:42:45;;;;;;;81.00;38.53;;;;;;;3.08;87.70;102391.52;1707254;82;26122;-80
2021/03/02 01:45:16;;;;;;;92.05;39.67;;;;;;;3.09;87.77;102389.27;1667251;82;25809;-78
2021/03/02 01:47:47;;;;;;;76.82;31.25;;;;;;;3.09;87.80;102386.63;1719323;82;25843;-78
2021/03/02 01:50:15;;;;;;;81.60;36.65;;;;;;;3.10;87.94;102384.33;1715409;82;25858;-80
2021/03/02 01:52:42;;;;;;;82.53;37.65;;;;;;;3.09;87.78;102377.83;1679242;83;27639;-79
2021/03/02 01:55:10;;;;;;;89.97;39.42;;;;;;;3.10;87.83;102371.59;1684819;82;25784;-79
2021/03/02 01:57:37;;;;;;;87.75;38.30;;;;;;;3.09;87.81;102370.73;1697964;82;25761;-78
2021/03/02 02:00:28;;;;;;;90.25;41.37;;;;;;;3.10;87.90;102367.62;1707737;83;25823;-77
2021/03/02 02:03:18;;;;;;;95.85;41.50;;;;;;;3.08;88.13;102367.70;1714146;82;25395;-78
2021/03/02 02:06:06;;;;;;;90.75;38.20;;;;;;;3.06;88.12;102362.97;1692835;82;27638;-79
2021/03/02 02:09:09;;;;;;;91.55;40.83;;;;;;;3.07;88.33;102357.22;1696456;82;25935;-79
2021/03/02 02:11:50;;;;;;;76.62;34.38;;;;;;;3.08;88.07;102362.87;1711771;82;25784;-77
2021/03/02 02:14:44;;;;;;;91.15;39.90;;;;;;;3.11;88.08;102369.31;1719845;82;26583;-78
2021/03/02 02:17:50;;;;;;;85.42;35.08;;;;;;;3.10;88.07;102361.01;1696738;82;25866;-79
2021/03/02 02:20:42;;;;;;;87.53;40.52;;;;;;;3.09;88.24;102353.53;1704183;82;28300;-78
2021/03/02 02:23:36;;;;;;;83.55;35.33;;;;;;;3.08;88.26;102348.31;1697692;82;26178;-78
2021/03/02 02:26:28;;;;;;;94.13;40.58;;;;;;;3.10;88.23;102343.30;1681068;84;25791;-78
2021/03/02 02:28:58;;;;;;;87.02;36.77;;;;;;;3.10;88.34;102339.83;1691626;84;25724;-79
2021/03/02 02:31:27;;;;;;;98.37;40.90;;;;;;;3.08;88.49;102331.95;1683496;84;25411;-78
2021/03/02 02:33:56;;;;;;;86.90;38.63;;;;;;;3.09;88.36;102337.64;1705782;82;27545;-80
2021/03/02 02:36:25;;;;;;;74.32;34.73;;;;;;;3.08;88.44;102329.31;1669024;84;25824;-78
2021/03/02 02:39:09;;;;;;;92.20;40.15;;;;;;;3.09;88.70;102328.37;1688078;82;25688;-78
2021/03/02 02:41:37;;;;;;;91.78;40.33;;;;;;;3.08;88.76;102324.48;1687021;83;25926;-79
2021/03/02 02:44:05;;;;;;;94.40;40.50;;;;;;;3.09;88.59;102318.25;1640519;83;25816;-79
2021/03/02 02:46:34;;;;;;;81.10;38.65;;;;;;;3.14;88.54;102322.80;1685747;83;27722;-78
2021/03/02 02:49:02;;;;;;;84.07;36.30;;;;;;;3.16;88.56;102316.07;1684542;82;25777;-77
2021/03/02 02:51:30;;;;;;;90.55;37.45;;;;;;;3.16;88.77;102322.23;1688302;83;25920;-78
2021/03/02 02:53:58;;;;;;;94.87;42.90;;;;;;;3.15;88.59;102324.48;1679642;83;25897;-78
2021/03/02 02:56:28;;;;;;;98.80;44.83;;;;;;;3.17;88.58;102321.26;1661259;85;25984;-78
2021/03/02 02:59:08;;;;;;;81.37;36.03;;;;;;;3.17;88.84;102325.23;1658494;85;27200;-79
2021/03/02 03:01:45;;;;;;;85.20;39.00;;;;;;;3.18;88.72;102324.77;1685584;84;26399;-77
2021/03/02 03:04:17;;;;;;;93.90;42.98;;;;;;;3.16;88.81;102322.23;1659064;84;25879;-78
2021/03/02 03:06:45;;;;;;;92.90;40.90;;;;;;;3.15;88.92;102315.22;1684622;84;25943;-78
2021/03/02 03:09:13;;;;;;;86.35;39.88;;;;;;;3.15;88.78;102320.51;1685535;82;26415;-78
2021/03/02 03:11:48;;;;;;;87.92;42.27;;;;;;;3.18;88.72;102320.33;1685950;83;27535;-79
2021/03/02 03:14:18;;;;;;;93.12;41.18;;;;;;;3.19;88.77;102324.66;1665985;84;25846;-78
2021/03/02 03:16:46;;;;;;;96.72;44.18;;;;;;;3.19;88.82;102324.66;1700591;81;25991;-78
2021/03/02 03:19:19;;;;;;;93.67;43.42;;;;;;;3.20;88.79;102326.84;1739151;81;25901;-77
2021/03/02 03:21:47;;;;;;;73.78;35.03;;;;;;;3.21;88.75;102334.67;1727359;81;25730;-78
2021/03/02 03:24:15;;;;;;;84.40;37.48;;;;;;;3.23;89.00;102337.25;1670012;82;27727;-78
2021/03/02 03:26:44;;;;;;;100.18;44.67;;;;;;;3.23;88.78;102339.40;1680135;84;26053;-78
2021/03/02 03:29:12;;;;;;;89.97;42.80;;;;;;;3.25;88.69;102344.12;1680289;82;25911;-78
2021/03/02 03:31:39;;;;;;;94.83;41.90;;;;;;;3.28;88.61;102353.67;1728521;81;26432;-79
2021/03/02 03:34:07;;;;;;;87.22;41.77;;;;;;;3.29;88.60;102349.63;1628153;84;25761;-78
2021/03/02 03:36:36;;;;;;;88.95;41.42;;;;;;;3.30;88.58;102351.78;1683111;83;27548;-78
2021/03/02 03:39:04;;;;;;;81.40;40.85;;;;;;;3.31;88.54;102352.17;1686809;83;25830;-77
2021/03/02 03:41:33;;;;;;;85.47;39.20;;;;;;;3.31;88.59;102353.03;1697508;83;25879;-77
2021/03/02 03:44:02;;;;;;;83.47;40.28;;;;;;;3.31;88.51;102351.70;1666245;84;26127;-78
2021/03/02 03:46:30;;;;;;;82.20;37.55;;;;;;;3.32;88.58;102354.71;1693082;83;25795;-79
2021/03/02 03:48:57;;;;;;;90.40;41.70;;;;;;;3.32;88.58;102346.77;1662874;83;28314;-78
2021/03/02 03:51:27;;;;;;;86.53;40.60;;;;;;;3.32;88.52;102347.23;1727851;81;25691;-78
2021/03/02 03:53:56;;;;;;;82.45;39.45;;;;;;;3.34;88.47;102350.62;1693877;82;25895;-78
2021/03/02 03:56:24;;;;;;;72.75;36.08;;;;;;;3.35;88.48;102350.56;1708205;82;25836;-79
2021/03/02 03:58:53;;;;;;;79.80;37.85;;;;;;;3.35;88.65;102356.32;1731560;81;25956;-78
2021/03/02 04:01:21;;;;;;;86.95;39.58;;;;;;;3.34;88.45;102346.19;1702281;83;27325;-78
2021/03/02 04:03:49;;;;;;;83.52;38.45;;;;;;;3.37;88.46;102346.48;1730048;81;26361;-78
2021/03/02 04:06:16;;;;;;;75.32;36.42;;;;;;;3.37;88.35;102338.53;1690785;81;25891;-78
2021/03/02 04:08:44;;;;;;;84.67;39.05;;;;;;;3.38;88.35;102337.59;1709628;82;25748;-79
2021/03/02 04:11:12;;;;;;;88.12;38.95;;;;;;;3.39;88.39;102338.81;1732833;81;25706;-78
2021/03/02 04:13:39;;;;;;;77.42;39.33;;;;;;;3.39;88.30;102332.19;1726140;82;28503;-78
2021/03/02 04:16:07;;;;;;;79.55;39.33;;;;;;;3.39;88.29;102333.52;1697305;82;25997;-78
2021/03/02 04:18:34;;;;;;;74.77;37.28;;;;;;;3.39;88.34;102332.66;1712991;82;26033;-78
2021/03/02 04:21:02;;;;;;;82.67;39.63;;;;;;;3.38;88.41;102331.80;1690815;82;25903;-79
2021/03/02 04:23:30;;;;;;;90.17;41.75;;;;;;;3.37;88.44;102328.80;1713370;82;26398;-78
2021/03/02 04:25:57;;;;;;;91.72;41.65;;;;;;;3.37;88.39;102317.34;1676020;81;28513;-79
2021/03/02 04:28:24;;;;;;;83.17;40.60;;;;;;;3.38;88.34;102317.73;1691832;82;26159;-78
2021/03/02 04:30:52;;;;;;;95.75;42.33;;;;;;;3.38;88.41;102318.55;1701454;82;25924;-79
2021/03/02 04:33:19;;;;;;;85.65;41.10;;;;;;;3.36;88.35;102308.54;1721262;82;25843;-79
2021/03/02 04:35:46;;;;;;;78.80;37.53;;;;;;;3.38;88.32;102305.81;1681021;82;25947;-78
2021/03/02 04:38:14;;;;;;;62.78;29.75;;;;;;;3.39;88.29;102314.12;1654780;82;28112;-79
2021/03/02 04:40:41;;;;;;;77.65;36.23;;;;;;;3.38;88.37;102317.73;1654544;83;26095;-77
2021/03/02 04:43:08;;;;;;;77.08;35.25;;;;;;;3.37;88.40;102315.55;1720041;82;25757;-78
2021/03/02 04:45:36;;;;;;;73.00;36.75;;;;;;;3.36;88.41;102318.31;1651843;83;26047;-80
2021/03/02 04:48:04;;;;;;;75.60;34.23;;;;;;;3.33;88.57;102306.11;1687777;82;26434;-78
2021/03/02 04:50:31;;;;;;;73.00;37.40;;;;;;;3.32;88.54;102300.89;1690959;83;27525;-79
2021/03/02 04:52:58;;;;;;;82.25;38.23;;;;;;;3.31;88.53;102301.85;1723895;82;26107;-77
2021/03/02 04:55:26;;;;;;;83.75;37.35;;;;;;;3.32;88.48;102303.53;1700577;82;25771;-78
2021/03/02 04:57:53;;;;;;;76.25;38.25;;;;;;;3.34;88.51;102301.64;1654233;84;26508;-78
2021/03/02 05:00:22;;;;;;;73.00;34.50;;;;;;;3.33;88.61;102295.98;1678034;83;26431;-78
2021/03/02 05:02:50;;;;;;;83.65;40.90;;;;;;;3.31;88.55;102297.41;1702190;83;27611;-79
2021/03/02 05:05:17;;;;;;;75.62;36.33;;;;;;;3.31;88.64;102295.23;1681467;81;26473;-78
2021/03/02 05:07:44;;;;;;;74.82;34.00;;;;;;;3.29;88.53;102301.11;1686437;82;25935;-78
2021/03/02 05:10:13;;;;;;;72.40;33.88;;;;;;;3.28;88.65;102291.44;1700458;82;25738;-79
2021/03/02 05:12:41;;;;;;;79.22;37.20;;;;;;;3.27;88.72;102287.97;1707326;83;26094;-78
2021/03/02 05:15:09;;;;;;;85.17;41.13;;;;;;;3.28;88.76;102283.03;1663606;84;27715;-79
2021/03/02 05:17:36;;;;;;;92.65;43.50;;;;;;;3.27;88.65;102282.67;1693879;83;25755;-79
2021/03/02 05:20:05;;;;;;;124.45;59.25;;;;;;;3.29;88.62;102287.39;1688129;82;25835;-79
2021/03/02 05:22:33;;;;;;;90.50;45.30;;;;;;;3.31;88.67;102289.94;1705711;82;26061;-79
2021/03/02 05:25:00;;;;;;;99.72;49.25;;;;;;;3.30;88.65;102283.78;1674549;83;25826;-77
2021/03/02 05:27:28;;;;;;;98.15;48.83;;;;;;;3.31;88.76;102288.61;1690760;82;28612;-78
2021/03/02 05:29:55;;;;;;;86.90;43.13;;;;;;;3.29;88.75;102285.21;1671496;83;26386;-79
2021/03/02 05:32:23;;;;;;;88.70;40.65;;;;;;;3.30;88.61;102274.98;1715983;82;26303;-79
2021/03/02 05:34:51;;;;;;;89.67;40.10;;;;;;;3.30;88.70;102278.95;1644632;84;26444;-78
2021/03/02 05:37:18;;;;;;;89.13;40.83;;;;;;;3.30;88.70;102286.43;1673870;82;25884;-78
2021/03/02 05:39:45;;;;;;;93.82;40.15;;;;;;;3.29;88.71;102289.19;1692205;82;27125;-78
2021/03/02 05:42:13;;;;;;;81.45;37.25;;;;;;;3.31;88.61;102292.12;1713017;82;25734;-78
2021/03/02 05:44:40;;;;;;;80.70;38.92;;;;;;;3.32;88.63;102291.62;1666071;81;26175;-79
2021/03/02 05:47:09;;;;;;;81.10;35.55;;;;;;;3.30;88.52;102293.05;1685310;82;25968;-78
2021/03/02 05:49:39;;;;;;;88.27;38.70;;;;;;;3.31;88.68;102293.91;1702655;81;25725;-79
2021/03/02 05:52:09;;;;;;;83.00;38.05;;;;;;;3.30;88.61;102291.73;1732014;81;27518;-79
2021/03/02 05:54:36;;;;;;;90.83;39.70;;;;;;;3.29;88.74;102289.19;1708505;82;25909;-78
2021/03/02 05:57:05;;;;;;;91.63;38.38;;;;;;;3.28;88.73;102284.36;1688524;83;25710;-78
2021/03/02 05:59:33;;;;;;;84.70;36.35;;;;;;;3.25;88.89;102278.42;1722156;81;27039;-79
2021/03/02 06:02:02;;;;;;;70.50;32.65;;;;;;;3.24;88.81;102282.00;1713513;82;25713;-78
2021/03/02 06:04:29;;;;;;;82.12;36.30;;;;;;;3.24;88.81;102280.20;1653434;83;27539;-78
2021/03/02 06:07:04;;;;;;;83.62;35.92;;;;;;;3.24;88.92;102291.27;1678431;82;25978;-78
2021/03/02 06:09:31;;;;;;;88.72;39.23;;;;;;;3.22;89.04;102287.41;1717570;82;25805;-79
2021/03/02 06:12:04;;;;;;;85.30;36.40;;;;;;;3.24;88.87;102293.91;1719071;82;25780;-79
2021/03/02 06:14:34;;;;;;;89.70;38.28;;;;;;;3.26;88.90;102285.40;1658245;82;25743;-79
2021/03/02 06:17:04;;;;;;;90.03;39.70;;;;;;;3.28;89.05;102288.80;1665312;82;28765;-79
2021/03/02 06:19:46;;;;;;;88.85;39.00;;;;;;;3.26;89.20;102286.26;1691014;83;25840;-79
2021/03/02 06:22:39;;;;;;;91.15;40.55;;;;;;;3.26;88.99;102288.05;1691965;83;25772;-78
2021/03/02 06:25:26;;;;;;;90.40;38.78;;;;;;;3.27;89.01;102287.11;1652351;86;25615;-78
2021/03/02 06:27:53;;;;;;;93.67;38.53;;;;;;;3.26;89.05;102282.28;1688313;83;26169;-78
2021/03/02 06:30:22;;;;;;;99.10;43.10;;;;;;;3.25;89.06;102277.92;1675701;84;27462;-79
2021/03/02 06:32:52;;;;;;;96.15;44.15;;;;;;;3.26;89.04;102282.28;1675551;84;25390;-79
2021/03/02 06:35:38;;;;;;;94.05;39.98;;;;;;;3.28;89.05;102291.44;1661509;84;34963;-78
2021/03/02 06:38:06;;;;;;;95.83;40.20;;;;;;;3.29;89.09;102293.16;1727898;81;26423;-78
2021/03/02 06:40:48;;;;;;;105.12;46.88;;;;;;;3.29;89.11;102299.78;1720686;81;26394;-79
2021/03/02 06:43:37;;;;;;;98.80;42.58;;;;;;;3.29;89.04;102292.69;1745839;81;27536;-79
2021/03/02 06:46:10;;;;;;;104.67;43.25;;;;;;;3.31;88.97;102292.12;1732319;81;26593;-78
2021/03/02 06:48:57;;;;;;;103.02;45.78;;;;;;;3.32;89.00;102281.88;1723126;81;25695;-79
2021/03/02 06:51:31;;;;;;;105.22;45.70;;;;;;;3.34;89.15;102279.98;1723962;81;25825;-78
2021/03/02 06:54:10;;;;;;;105.60;44.65;;;;;;;3.31;89.05;102275.37;1746232;80;26110;-79
2021/03/02 06:56:39;;;;;;;94.20;40.08;;;;;;;3.31;89.20;102275.37;1648354;84;28448;-78
2021/03/02 06:59:19;;;;;;;98.62;42.85;;;;;;;3.32;89.07;102273.08;1692893;83;25942;-79
2021/03/02 07:01:48;;;;;;;106.03;45.08;;;;;;;3.33;89.07;102266.84;1684411;83;25868;-79
2021/03/02 07:04:18;;;;;;;106.15;46.08;;;;;;;3.34;89.04;102264.09;1691708;84;26489;-79
2021/03/02 07:06:51;;;;;;;121.13;50.12;;;;;;;3.37;89.14;102247.16;1653546;83;25642;-78
2021/03/02 07:09:16;;;;;;;103.75;47.75;;;;;;;3.38;89.13;102256.31;1693665;83;29379;-77
2021/03/02 07:11:46;;;;;;;113.20;48.23;;;;;;;3.39;89.06;102251.41;1715280;82;25810;-78
2021/03/02 07:14:14;;;;;;;113.80;49.13;;;;;;;3.40;89.15;102253.59;1712365;83;26409;-78
2021/03/02 07:16:46;;;;;;;106.80;43.40;;;;;;;3.42;89.04;102254.34;1675130;83;26561;-79
2021/03/02 07:19:24;;;;;;;110.55;47.98;;;;;;;3.45;89.10;102250.14;1699170;82;25894;-79
2021/03/02 07:21:57;;;;;;;106.30;46.60;;;;;;;3.49;89.06;102247.66;1684091;82;27111;-80
2021/03/02 07:24:29;;;;;;;103.22;43.30;;;;;;;3.51;88.96;102245.30;1719289;82;25773;-78
2021/03/02 07:27:02;;;;;;;91.42;39.63;;;;;;;3.52;88.91;102247.47;1685182;82;26001;-78
2021/03/02 07:29:32;;;;;;;110.88;46.25;;;;;;;3.50;88.79;102233.48;1674684;82;25870;-81
2021/03/02 07:32:03;;;;;;;107.07;45.28;;;;;;;3.49;88.74;102240.57;1716885;82;25822;-78
2021/03/02 07:34:32;;;;;;;105.97;47.27;;;;;;;3.50;88.87;102249.38;1683838;82;28297;-78
2021/03/02 07:37:00;;;;;;;99.83;42.05;;;;;;;3.50;88.94;102257.32;1720583;82;25369;-77
2021/03/02 07:39:30;;;;;;;94.22;38.50;;;;;;;3.55;88.85;102267.16;1652881;82;25828;-79
2021/03/02 07:41:57;;;;;;;105.40;42.93;;;;;;;3.59;88.86;102266.82;1668117;82;26435;-77
2021/03/02 07:44:26;;;;;;;99.03;43.73;;;;;;;3.63;88.79;102275.44;1694063;82;26156;-78
2021/03/02 07:46:56;;;;;;;95.07;41.50;;;;;;;3.68;88.82;102284.77;1715933;82;27544;-78
2021/03/02 07:49:32;;;;;;;95.35;39.85;;;;;;;3.75;88.74;102289.19;1691431;82;25864;-78
2021/03/02 07:52:09;;;;;;;102.15;43.23;;;;;;;3.78;88.64;102287.20;1696457;82;26444;-78
2021/03/02 07:54:37;;;;;;;102.80;45.88;;;;;;;3.81;88.55;102284.33;1686413;82;26405;-77
2021/03/02 07:57:19;;;;;;;111.62;46.60;;;;;;;3.82;88.44;102276.77;1719511;82;26435;-76
2021/03/02 07:59:56;;;;;;;114.42;48.28;;;;;;;3.86;88.44;102280.05;1693089;82;27606;-77
2021/03/02 08:02:32;;;;;;;96.53;39.15;;;;;;;3.96;88.32;102277.64;1777710;79;25891;-77
2021/03/02 08:05:10;;;;;;;105.70;43.33;;;;;;;3.91;88.28;102266.84;1706216;81;26101;-78
2021/03/02 08:07:38;;;;;;;89.07;37.78;;;;;;;3.93;88.15;102260.14;1655201;84;28358;-78
2021/03/02 08:10:11;;;;;;;99.58;41.60;;;;;;;3.93;88.02;102272.53;1694621;83;26195;-75
2021/03/02 08:12:39;;;;;;;87.22;37.05;;;;;;;3.93;87.88;102272.53;1687194;83;25854;-78
2021/03/02 08:15:20;;;;;;;106.03;40.88;;;;;;;3.91;87.99;102277.95;1631605;83;25624;-78
2021/03/02 08:17:48;;;;;;;111.10;44.23;;;;;;;3.93;88.03;102283.14;1659577;84;26605;-77
2021/03/02 08:20:15;;;;;;;96.90;40.28;;;;;;;3.95;87.95;102272.81;1680569;83;28272;-77
2021/03/02 08:22:46;;;;;;;110.48;43.78;;;;;;;3.96;87.90;102286.42;1692209;83;26130;-76
2021/03/02 08:25:27;;;;;;;98.65;40.50;;;;;;;4.01;88.05;102289.62;1645327;84;27360;-77
2021/03/02 08:27:59;;;;;;;111.17;45.17;;;;;;;4.04;87.75;102284.13;1644448;85;25798;-77
2021/03/02 08:30:36;;;;;;;86.90;38.33;;;;;;;4.05;87.75;102279.18;1636542;84;25811;-78
2021/03/02 08:33:08;;;;;;;94.22;39.35;;;;;;;4.08;87.57;102276.34;1682687;84;27543;-80
2021/03/02 08:35:41;;;;;;;101.60;43.70;;;;;;;4.09;87.45;102279.81;1635696;84;26510;-79
2021/03/02 08:38:11;;;;;;;92.67;37.48;;;;;;;4.10;87.46;102277.08;1680547;83;26534;-79
2021/03/02 08:40:46;;;;;;;88.52;37.40;;;;;;;4.11;87.35;102289.36;1665530;84;26454;-78
2021/03/02 08:43:20;;;;;;;77.90;34.03;;;;;;;4.12;87.31;102282.27;1685032;84;26024;-78
2021/03/02 08:45:54;;;;;;;94.32;40.03;;;;;;;4.16;87.28;102277.98;1641181;84;27500;-78
2021/03/02 08:48:27;;;;;;;96.32;41.28;;;;;;;4.20;87.50;102279.94;1666368;84;25836;-78
2021/03/02 08:50:58;;;;;;;89.50;37.03;;;;;;;4.25;87.15;102280.02;1654406;84;25727;-78
2021/03/02 08:53:42;;;;;;;95.07;39.80;;;;;;;4.27;87.20;102285.20;1682170;84;25890;-78
2021/03/02 08:56:17;;;;;;;92.65;39.08;;;;;;;4.31;87.14;102288.87;1638324;85;25940;-78
2021/03/02 08:58:48;;;;;;;81.80;38.75;;;;;;;4.31;86.84;102285.36;1683509;84;27527;-78
2021/03/02 09:01:23;;;;;;;87.12;37.70;;;;;;;4.31;87.00;102289.34;1662045;85;25928;-78
2021/03/02 09:03:52;;;;;;;81.40;35.92;;;;;;;4.33;86.90;102280.80;1673192;85;26518;-79
2021/03/02 09:06:22;;;;;;;82.75;35.73;;;;;;;4.37;86.79;102285.78;1639870;84;25751;-78
2021/03/02 09:09:04;;;;;;;94.63;41.37;;;;;;;4.42;86.92;102289.45;1635984;86;26051;-78
2021/03/02 09:11:43;;;;;;;93.87;40.08;;;;;;;4.47;87.08;102280.20;1654137;85;27350;-79
2021/03/02 09:14:17;;;;;;;97.22;39.85;;;;;;;4.52;86.82;102290.03;1698778;84;25740;-78
2021/03/02 09:17:00;;;;;;;81.80;35.60;;;;;;;4.53;86.60;102290.89;1672748;84;25817;-78
2021/03/02 09:22:18;;;;;;;89.58;38.48;;;;;;;4.73;86.25;102314.72;1793725;79;26297;-77
2021/03/02 09:24:56;;;;;;;76.53;33.90;;;;;;;4.67;86.07;102313.32;1706651;80;25908;-79
2021/03/02 09:27:33;;;;;;;82.45;35.10;;;;;;;4.74;86.33;102313.27;1769109;80;27527;-78
2021/03/02 09:30:00;;;;;;;90.85;39.03;;;;;;;4.84;86.59;102310.80;1695300;83;25857;-78
2021/03/02 09:32:31;;;;;;;77.35;34.50;;;;;;;4.91;86.25;102308.95;1728590;81;25945;-77
2021/03/02 09:35:03;;;;;;;84.50;38.70;;;;;;;5.01;86.20;102311.78;1662396;82;25929;-78
2021/03/02 09:37:30;;;;;;;72.50;33.90;;;;;;;5.09;85.65;102313.44;1677345;83;26082;-77
2021/03/02 09:40:09;;;;;;;84.85;38.63;;;;;;;5.13;84.60;102313.08;1679830;83;27353;-77
2021/03/02 09:42:41;;;;;;;94.17;37.90;;;;;;;5.09;84.70;102315.59;1724457;81;25759;-78
2021/03/02 09:45:17;;;;;;;85.67;37.00;;;;;;;5.11;84.95;102307.53;1651480;83;25923;-77
2021/03/02 09:47:47;;;;;;;87.92;38.05;;;;;;;5.16;84.51;102311.55;1699225;81;25816;-77
2021/03/02 09:50:17;;;;;;;81.23;36.97;;;;;;;5.22;85.10;102312.89;1677178;83;26591;-77
2021/03/02 09:52:48;;;;;;;79.77;34.98;;;;;;;5.32;84.72;102316.10;1686990;83;27598;-78
2021/03/02 09:55:30;;;;;;;83.30;38.28;;;;;;;5.38;84.38;102314.83;1660510;83;34943;-79
2021/03/02 09:58:11;;;;;;;70.55;31.35;;;;;;;5.40;83.89;102318.22;1659578;83;25870;-78
2021/03/02 10:00:54;;;;;;;68.78;31.42;;;;;;;5.41;83.73;102318.57;1702479;83;25891;-79
2021/03/02 10:03:28;;;;;;;76.57;35.85;;;;;;;5.43;83.31;102332.63;1727529;81;25788;-78
2021/03/02 10:05:58;;;;;;;79.95;35.03;;;;;;;5.43;83.73;102334.78;1668157;82;27638;-78
2021/03/02 10:08:39;;;;;;;71.45;32.90;;;;;;;5.43;83.52;102335.28;1704745;83;25980;-77
2021/03/02 10:11:17;;;;;;;72.22;34.27;;;;;;;5.44;83.45;102342.28;1708419;82;25932;-78
2021/03/02 10:13:55;;;;;;;72.50;34.83;;;;;;;5.51;83.51;102329.39;1725332;81;25353;-77
2021/03/02 10:16:32;;;;;;;78.60;36.68;;;;;;;5.56;83.19;102327.27;1711438;81;25866;-78
2021/03/02 10:19:19;;;;;;;67.00;33.38;;;;;;;5.66;83.61;102325.14;1700835;81;28445;-78
2021/03/02 10:21:56;;;;;;;69.60;31.77;;;;;;;5.69;83.18;102312.93;1672002;82;25867;-78
2021/03/02 10:24:36;;;;;;;68.80;30.95;;;;;;;5.69;82.44;102315.59;1711295;82;25779;-79
2021/03/02 10:27:20;;;;;;;65.42;32.35;;;;;;;5.66;82.60;102318.49;1687351;82;25665;-78
2021/03/02 10:29:48;;;;;;;72.45;32.03;;;;;;;5.66;82.74;102314.50;1686127;82;25877;-78
2021/03/02 10:32:16;;;;;;;66.50;33.48;;;;;;;5.67;82.67;102317.52;1690165;82;28308;-78
2021/03/02 10:34:45;;;;;;;62.90;28.47;;;;;;;5.72;82.36;102310.06;1713071;82;26099;-77
2021/03/02 10:37:14;;;;;;;65.55;31.90;;;;;;;5.81;82.13;102316.03;1685488;82;25867;-80
2021/03/02 10:39:41;;;;;;;66.80;33.20;;;;;;;5.92;83.06;102307.28;1690935;82;25865;-79
2021/03/02 10:42:09;;;;;;;68.87;32.70;;;;;;;6.12;82.91;102307.45;1700874;82;25879;-78
2021/03/02 10:44:37;;;;;;;61.80;28.80;;;;;;;6.22;81.59;102296.47;1713482;82;27614;-78
2021/03/02 10:47:06;;;;;;;75.03;34.67;;;;;;;6.33;82.33;102285.51;1672270;83;26546;-78
2021/03/02 10:49:33;;;;;;;60.25;29.05;;;;;;;6.44;81.99;102281.50;1687422;82;25878;-78
2021/03/02 10:52:00;;;;;;;64.25;29.92;;;;;;;6.54;81.60;102279.84;1712728;83;26356;-77
2021/03/02 10:54:29;;;;;;;59.40;30.15;;;;;;;6.54;80.42;102271.38;1716450;82;26110;-79
2021/03/02 10:56:56;;;;;;;57.38;27.62;;;;;;;6.54;80.29;102269.19;1666482;83;28542;-79
2021/03/02 10:59:24;;;;;;;60.48;28.02;;;;;;;6.56;80.52;102271.25;1695785;82;25816;-78
2021/03/02 11:01:51;;;;;;;59.25;29.70;;;;;;;6.60;80.95;102268.70;1710626;82;25936;-80
2021/03/02 11:04:18;;;;;;;61.58;30.48;;;;;;;6.63;80.88;102267.15;1720313;82;25764;-77
2021/03/02 11:06:46;;;;;;;57.05;30.95;;;;;;;6.67;79.67;102260.10;1681318;82;25871;-78
2021/03/02 11:09:14;;;;;;;53.08;25.60;;;;;;;6.71;80.43;102259.39;1708041;82;27547;-78
2021/03/02 11:11:41;;;;;;;48.73;26.23;;;;;;;6.76;79.68;102249.20;1681190;82;26415;-82
2021/03/02 11:14:09;;;;;;;62.78;30.55;;;;;;;6.78;80.13;102259.25;1721075;82;25330;-80
2021/03/02 11:16:36;;;;;;;53.13;27.80;;;;;;;6.84;80.76;102258.78;1662924;83;25940;-78
2021/03/02 11:19:03;;;;;;;59.70;30.12;;;;;;;6.95;80.57;102257.41;1720602;82;25818;-78
2021/03/02 11:21:30;;;;;;;53.52;26.95;;;;;;;7.03;79.94;102254.50;1700129;82;28297;-78
2021/03/02 11:23:58;;;;;;;56.50;26.35;;;;;;;7.08;79.89;102248.80;1705111;82;26127;-79
2021/03/02 11:26:25;;;;;;;55.33;27.65;;;;;;;7.14;79.50;102244.81;1648322;83;25756;-77
2021/03/02 11:28:52;;;;;;;55.78;26.73;;;;;;;7.19;78.82;102227.94;1656382;83;26267;-79
2021/03/02 11:31:20;;;;;;;59.75;29.10;;;;;;;7.23;78.66;102234.23;1678029;83;25767;-79
2021/03/02 11:33:47;;;;;;;55.28;28.55;;;;;;;7.27;79.38;102223.67;1709389;83;27548;-78
2021/03/02 11:36:14;;;;;;;49.58;24.82;;;;;;;7.33;78.57;102216.53;1675806;83;26360;-78
2021/03/02 11:38:42;;;;;;;53.75;27.52;;;;;;;7.39;78.94;102212.50;1676680;83;25747;-79